Kinmount, Canada
Current Conditions -  °F | °C
As of 5:00 AM on Friday 31 Oct 2014 (Local Time) from CYQA Reporting Station
Light Rain Light Rain  
Wind Chill: 34°   Ceiling: 1700
Heat Index: 37°   Visibility: 9mi
Dew Point: 36°   Wind: 5mph
Humidity: 93%   Direction: 110°ESE
Pressure: 29.94"   Gusts: NA
Location:  44.78°N, 78.65°W
Report Text: CYQA 310900Z AUTO 11004KT 9SM -RA OVC017 03/02 A2994 RMK SLP149
Loading
Personal Weather Stations






























Interactive Weather Map New forecast layout! Learn more

10-Day Weather Forecast

Advertisements
Track Severe Weather on mobile